createdAt,value
2023-05-02T00:01:34.490Z,80387.91
2023-05-02T00:03:15.912Z,80377.53
2023-05-02T00:04:57.259Z,80382.75
2023-05-02T00:06:38.667Z,80382.44
2023-05-02T00:08:20.132Z,80384.63
2023-05-02T00:10:01.646Z,80377.56
2023-05-02T00:11:43.205Z,80377.41
2023-05-02T00:13:24.498Z,80375.19
2023-05-02T00:15:05.801Z,80374.69
2023-05-02T00:16:47.116Z,80375.88
2023-05-02T00:18:28.437Z,80382.69
2023-05-02T00:20:09.724Z,80378.03
2023-05-02T00:21:51.036Z,80372.75
2023-05-02T00:23:32.494Z,80370.41
2023-05-02T00:25:13.795Z,80364.34
2023-05-02T00:26:55.104Z,80364.88
2023-05-02T00:28:36.407Z,80371.06
2023-05-02T00:30:17.702Z,80360.19
2023-05-02T00:31:58.991Z,80367.31
2023-05-02T00:33:40.303Z,80367.56
2023-05-02T00:35:21.609Z,80364.91
2023-05-02T00:37:02.936Z,80366.50
2023-05-02T00:38:44.223Z,80373.47
2023-05-02T00:40:25.534Z,80374.94
2023-05-02T00:42:06.831Z,80365.84
2023-05-02T00:43:48.124Z,80365.31
2023-05-02T00:45:29.396Z,80363.00
2023-05-02T00:47:10.705Z,80367.63
2023-05-02T00:48:52.040Z,80369.19
2023-05-02T00:50:33.348Z,80371.56
2023-05-02T00:52:14.657Z,80367.91
2023-05-02T00:53:55.932Z,80367.72
2023-05-02T00:55:37.225Z,80367.19
2023-05-02T00:57:18.510Z,80370.09
2023-05-02T00:58:59.808Z,80364.88
2023-05-02T01:00:41.121Z,80369.53
2023-05-02T01:02:22.481Z,80371.84
2023-05-02T01:04:03.992Z,80369.19
2023-05-02T01:05:45.365Z,80365.88
2023-05-02T01:07:26.671Z,80365.03
2023-05-02T01:09:07.965Z,80361.66
2023-05-02T01:10:49.378Z,80369.41
2023-05-02T01:12:30.714Z,80362.75
2023-05-02T01:14:12.052Z,80362.81
2023-05-02T01:15:53.464Z,80356.94
2023-05-02T01:17:34.801Z,80356.63
2023-05-02T01:19:16.113Z,80361.59
2023-05-02T01:20:57.492Z,80363.50
2023-05-02T01:22:38.809Z,80360.91
2023-05-02T01:24:20.092Z,80360.09
2023-05-02T01:26:01.455Z,80358.34
2023-05-02T01:27:42.749Z,80359.69
2023-05-02T01:29:24.042Z,80355.94
2023-05-02T01:31:05.389Z,80360.44
2023-05-02T01:32:46.787Z,80369.66
2023-05-02T01:34:28.125Z,80364.81
2023-05-02T01:36:09.471Z,80373.38
2023-05-02T01:37:50.796Z,80368.78
2023-05-02T01:39:32.085Z,80374.63
2023-05-02T01:41:13.406Z,80365.63
2023-05-02T01:42:54.724Z,80367.88
2023-05-02T01:44:36.002Z,80372.38
2023-05-02T01:46:17.413Z,80372.28
2023-05-02T01:47:58.820Z,80372.28
2023-05-02T01:49:40.172Z,80372.50
2023-05-02T01:51:21.497Z,80370.16
2023-05-02T01:53:02.797Z,80371.47
2023-05-02T01:54:44.113Z,80368.31
2023-05-02T01:56:25.387Z,80374.03
2023-05-02T01:58:06.639Z,80371.63
2023-05-02T01:59:47.950Z,80375.03
2023-05-02T02:01:29.262Z,80365.81
2023-05-02T02:03:10.619Z,80370.13
2023-05-02T02:04:52.019Z,80377.22
2023-05-02T02:06:33.408Z,80374.28
2023-05-02T02:08:14.684Z,80377.66
2023-05-02T02:09:55.977Z,80381.97
2023-05-02T02:11:37.291Z,80376.63
2023-05-02T02:13:18.574Z,80381.28
2023-05-02T02:14:59.873Z,80384.25
2023-05-02T02:16:41.227Z,80381.59
2023-05-02T02:18:22.542Z,80381.53
2023-05-02T02:20:03.839Z,80380.09
2023-05-02T02:21:45.120Z,80383.50
2023-05-02T02:23:26.431Z,80385.56
2023-05-02T02:25:07.692Z,80382.94
2023-05-02T02:26:50.031Z,80388.47
2023-05-02T02:28:31.342Z,80382.06
2023-05-02T02:30:12.656Z,80389.13
2023-05-02T02:31:53.941Z,80389.41
2023-05-02T02:33:35.220Z,80388.63
2023-05-02T02:35:16.498Z,80388.75
2023-05-02T02:36:57.817Z,80392.81
2023-05-02T02:38:39.076Z,80387.59
2023-05-02T02:40:20.401Z,80389.22
2023-05-02T02:42:01.696Z,80395.41
2023-05-02T02:43:42.970Z,80389.81
2023-05-02T02:45:24.243Z,80386.84
2023-05-02T02:47:05.539Z,80385.81
2023-05-02T02:48:46.797Z,80389.13
2023-05-02T02:50:28.110Z,80384.13
2023-05-02T02:52:09.417Z,80380.28
2023-05-02T02:53:50.688Z,80382.66
2023-05-02T02:55:31.948Z,80396.53
2023-05-02T02:57:13.254Z,80391.69
2023-05-02T02:58:54.533Z,80393.69
2023-05-02T03:00:35.802Z,80390.09
2023-05-02T03:02:17.199Z,80389.88
2023-05-02T03:03:58.562Z,80392.66
2023-05-02T03:05:39.857Z,80392.09
2023-05-02T03:07:21.156Z,80392.59
2023-05-02T03:09:02.422Z,80387.28
2023-05-02T03:10:43.703Z,80384.84
2023-05-02T03:12:25.009Z,80389.38
2023-05-02T03:14:06.301Z,80384.50
2023-05-02T03:15:47.594Z,80395.16
2023-05-02T03:17:28.905Z,80385.81
2023-05-02T03:19:10.237Z,80388.75
2023-05-02T03:20:51.527Z,80390.59
2023-05-02T03:22:32.804Z,80389.53
2023-05-02T03:24:14.109Z,80389.78
2023-05-02T03:25:55.390Z,80381.78
2023-05-02T03:27:36.677Z,80374.72
2023-05-02T03:29:18.006Z,80385.13
2023-05-02T03:30:59.289Z,80380.03
2023-05-02T03:32:40.653Z,80378.81
2023-05-02T03:34:22.106Z,80375.34
2023-05-02T03:36:03.410Z,80371.88
2023-05-02T03:37:44.719Z,80371.03
2023-05-02T03:39:26.002Z,80378.38
2023-05-02T03:41:07.263Z,80370.94
2023-05-02T03:42:48.596Z,80371.09
2023-05-02T03:44:29.896Z,80366.53
2023-05-02T03:46:11.273Z,80374.94
2023-05-02T03:47:52.762Z,80368.81
2023-05-02T03:49:34.104Z,80372.94
2023-05-02T03:51:15.374Z,80368.94
2023-05-02T03:52:56.820Z,80363.00
2023-05-02T03:54:38.104Z,80369.59
2023-05-02T03:56:19.377Z,80370.25
2023-05-02T03:58:00.702Z,80375.97
2023-05-02T03:59:42.020Z,80375.16
2023-05-02T04:01:23.288Z,80376.69
2023-05-02T04:03:04.625Z,80376.31
2023-05-02T04:04:46.031Z,80379.84
2023-05-02T04:06:27.417Z,80375.84
2023-05-02T04:08:08.785Z,80379.94
2023-05-02T04:09:50.106Z,80380.50
2023-05-02T04:11:31.375Z,80376.00
2023-05-02T04:13:12.657Z,80381.59
2023-05-02T04:14:53.996Z,80389.41
2023-05-02T04:16:35.300Z,80378.44
2023-05-02T04:18:16.658Z,80382.06
2023-05-02T04:19:58.243Z,80382.72
2023-05-02T04:21:39.794Z,80383.97
2023-05-02T04:23:21.063Z,80390.97
2023-05-02T04:25:02.387Z,80387.34
2023-05-02T04:26:43.655Z,80387.09
2023-05-02T04:28:24.933Z,80385.63
2023-05-02T04:30:06.262Z,80396.31
2023-05-02T04:31:47.545Z,80401.16
2023-05-02T04:33:28.839Z,80400.56
2023-05-02T04:35:10.157Z,80401.56
2023-05-02T04:36:51.430Z,80400.84
2023-05-02T04:38:32.689Z,80402.00
2023-05-02T04:40:13.976Z,80404.91
2023-05-02T04:41:55.277Z,80403.47
2023-05-02T04:43:36.626Z,80412.28
2023-05-02T04:45:17.954Z,80413.09
2023-05-02T04:46:59.236Z,80404.44
2023-05-02T04:48:40.498Z,80405.97
2023-05-02T04:50:21.778Z,80396.38
2023-05-02T04:52:03.071Z,80401.28
2023-05-02T04:53:44.406Z,80404.16
2023-05-02T04:55:25.735Z,80407.53
2023-05-02T04:57:07.056Z,80411.41
2023-05-02T04:58:48.339Z,80417.25
2023-05-02T05:00:29.650Z,80412.44
2023-05-02T05:02:11.372Z,80415.94
2023-05-02T05:03:52.839Z,80416.03
2023-05-02T05:05:34.216Z,80420.69
2023-05-02T05:07:15.496Z,80415.63
2023-05-02T05:08:56.775Z,80416.94
2023-05-02T05:10:38.092Z,80421.41
2023-05-02T05:12:19.417Z,80418.19
2023-05-02T05:14:00.735Z,80420.38
2023-05-02T05:15:42.151Z,80423.31
2023-05-02T05:17:23.483Z,80427.34
2023-05-02T05:19:04.806Z,80425.22
2023-05-02T05:20:46.094Z,80423.03
2023-05-02T05:22:27.382Z,80427.31
2023-05-02T05:24:08.685Z,80433.38
2023-05-02T05:25:50.004Z,80426.28
2023-05-02T05:27:31.293Z,80429.16
2023-05-02T05:29:12.582Z,80437.66
2023-05-02T05:30:53.884Z,80435.22
2023-05-02T05:32:35.196Z,80433.94
2023-05-02T05:34:16.613Z,80437.19
2023-05-02T05:35:57.985Z,80443.91
2023-05-02T05:37:39.258Z,80447.59
2023-05-02T05:39:20.609Z,80450.75
2023-05-02T05:41:01.891Z,80452.53
2023-05-02T05:42:43.178Z,80453.19
2023-05-02T05:44:24.496Z,80458.03
2023-05-02T05:46:05.808Z,80456.94
2023-05-02T05:47:47.140Z,80460.88
2023-05-02T05:49:28.544Z,80462.69
2023-05-02T05:51:09.837Z,80463.53
2023-05-02T05:52:51.124Z,80462.84
2023-05-02T05:54:32.459Z,80459.28
2023-05-02T05:56:13.753Z,80469.22
2023-05-02T05:57:55.078Z,80474.06
2023-05-02T05:59:36.372Z,80473.78
2023-05-02T06:01:17.642Z,80475.34
2023-05-02T06:02:59.055Z,80483.16
2023-05-02T06:04:40.538Z,80478.84
2023-05-02T06:06:21.892Z,80486.13
2023-05-02T06:08:03.249Z,80483.34
2023-05-02T06:09:44.526Z,80489.00
2023-05-02T06:11:25.852Z,80493.78
2023-05-02T06:13:07.188Z,80492.25
2023-05-02T06:14:48.509Z,80504.03
2023-05-02T06:16:29.799Z,80506.81
2023-05-02T06:18:11.208Z,80502.06
2023-05-02T06:19:52.661Z,80516.88
2023-05-02T06:21:33.939Z,80509.72
2023-05-02T06:23:15.273Z,80522.03
2023-05-02T06:24:56.556Z,80515.16
2023-05-02T06:26:37.848Z,80521.66
2023-05-02T06:28:19.166Z,80521.88
2023-05-02T06:30:00.760Z,80526.09
2023-05-02T06:31:42.339Z,80518.44
2023-05-02T06:33:23.672Z,80523.38
2023-05-02T06:35:04.991Z,80524.53
2023-05-02T06:36:46.274Z,80524.09
2023-05-02T06:38:27.599Z,80520.88
2023-05-02T06:40:08.916Z,80524.53
2023-05-02T06:41:50.220Z,80519.69
2023-05-02T06:43:31.522Z,80513.81
2023-05-02T06:45:12.833Z,80516.81
2023-05-02T06:46:54.191Z,80521.44
2023-05-02T06:48:35.521Z,80518.88
2023-05-02T06:50:16.855Z,80522.78
2023-05-02T06:51:58.128Z,80518.56
2023-05-02T06:53:39.405Z,80523.66
2023-05-02T06:55:20.747Z,80520.78
2023-05-02T06:57:02.060Z,80518.91
2023-05-02T06:58:43.360Z,80512.00
2023-05-02T07:00:24.701Z,80513.13
2023-05-02T07:02:06.018Z,80516.06
2023-05-02T07:03:47.354Z,80514.19
2023-05-02T07:05:28.679Z,80517.16
2023-05-02T07:07:09.977Z,80517.84
2023-05-02T07:08:51.266Z,80517.13
2023-05-02T07:10:32.602Z,80520.00
2023-05-02T07:12:13.894Z,80518.34
2023-05-02T07:13:55.172Z,80520.34
2023-05-02T07:15:36.473Z,80521.56
2023-05-02T07:17:17.784Z,80519.00
2023-05-02T07:18:59.062Z,80526.28
2023-05-02T07:20:40.332Z,80524.88
2023-05-02T07:22:21.672Z,80526.81
2023-05-02T07:24:02.994Z,80527.84
2023-05-02T07:25:44.362Z,80522.50
2023-05-02T07:27:25.699Z,80524.41
2023-05-02T07:29:07.044Z,80526.19
2023-05-02T07:30:48.338Z,80528.78
2023-05-02T07:32:29.765Z,80525.09
2023-05-02T07:34:11.106Z,80536.66
2023-05-02T07:35:52.401Z,80532.22
2023-05-02T07:37:34.438Z,80533.38
2023-05-02T07:39:16.031Z,80530.94
2023-05-02T07:40:57.427Z,80533.69
2023-05-02T07:42:38.748Z,80524.09
2023-05-02T07:44:20.051Z,80524.06
2023-05-02T07:46:01.383Z,80531.84
2023-05-02T07:47:43.497Z,80528.84
2023-05-02T07:49:26.416Z,80529.69
2023-05-02T07:51:07.687Z,80529.78
2023-05-02T07:52:49.125Z,80525.56
2023-05-02T07:54:30.438Z,80540.81
2023-05-02T07:56:11.783Z,80526.13
2023-05-02T07:57:53.109Z,80531.25
2023-05-02T07:59:34.401Z,80527.72
2023-05-02T08:01:15.692Z,80525.44
2023-05-02T08:02:57.146Z,80526.56
2023-05-02T08:04:38.609Z,80531.91
2023-05-02T08:06:19.960Z,80540.28
2023-05-02T08:08:01.329Z,80549.56
2023-05-02T08:09:42.646Z,80535.28
2023-05-02T08:11:23.987Z,80537.56
2023-05-02T08:13:05.273Z,80538.88
2023-05-02T08:14:46.565Z,80536.69
2023-05-02T08:16:27.913Z,80532.72
2023-05-02T08:18:09.357Z,80538.88
2023-05-02T08:19:50.661Z,80537.91
2023-05-02T08:21:31.932Z,80535.25
2023-05-02T08:23:13.318Z,80536.28
2023-05-02T08:24:54.702Z,80534.34
2023-05-02T08:26:35.992Z,80540.69
2023-05-02T08:28:17.336Z,80543.69
2023-05-02T08:30:00.593Z,80550.25
2023-05-02T08:31:42.432Z,80549.44
2023-05-02T08:33:23.814Z,80558.00
2023-05-02T08:35:05.173Z,80544.81
2023-05-02T08:36:46.473Z,80548.63
2023-05-02T08:38:27.796Z,80546.34
2023-05-02T08:40:09.105Z,80561.03
2023-05-02T08:41:50.383Z,80575.31
2023-05-02T08:43:31.702Z,80570.59
2023-05-02T08:45:14.124Z,80565.19
2023-05-02T08:46:57.045Z,80577.34
2023-05-02T08:48:38.457Z,80578.78
2023-05-02T08:50:19.751Z,80587.09
2023-05-02T08:52:01.032Z,80586.63
2023-05-02T08:53:42.353Z,80581.84
2023-05-02T08:55:23.647Z,80589.03
2023-05-02T08:57:04.944Z,80593.81
2023-05-02T08:58:46.230Z,80588.34
2023-05-02T09:00:27.650Z,80574.47
2023-05-02T09:02:09.320Z,80590.38
2023-05-02T09:03:50.650Z,80570.16
2023-05-02T09:05:32.074Z,80577.69
2023-05-02T09:07:13.370Z,80566.38
2023-05-02T09:08:54.688Z,80568.41
2023-05-02T09:10:36.007Z,80560.34
2023-05-02T09:12:17.389Z,80558.94
2023-05-02T09:13:58.695Z,80558.53
2023-05-02T09:15:39.999Z,80563.22
2023-05-02T09:17:21.300Z,80563.03
2023-05-02T09:19:02.583Z,80569.09
2023-05-02T09:20:43.899Z,80562.06
2023-05-02T09:22:25.194Z,80564.13
2023-05-02T09:24:06.579Z,80556.56
2023-05-02T09:25:47.839Z,80564.97
2023-05-02T09:27:29.115Z,80555.72
2023-05-02T09:29:10.523Z,80554.44
2023-05-02T09:30:51.839Z,80550.16
2023-05-02T09:32:33.162Z,80549.56
2023-05-02T09:34:14.506Z,80543.31
2023-05-02T09:35:55.831Z,80549.06
2023-05-02T09:37:37.137Z,80541.91
2023-05-02T09:39:18.471Z,80540.88
2023-05-02T09:40:59.772Z,80544.22
2023-05-02T09:42:41.050Z,80532.69
2023-05-02T09:44:22.347Z,80526.78
2023-05-02T09:46:03.722Z,80533.97
2023-05-02T09:47:45.132Z,80531.38
2023-05-02T09:49:26.505Z,80528.16
2023-05-02T09:51:07.836Z,80525.69
2023-05-02T09:52:49.216Z,80520.03
2023-05-02T09:54:30.479Z,80519.44
2023-05-02T09:56:11.761Z,80518.81
2023-05-02T09:57:53.075Z,80510.56
2023-05-02T09:59:34.346Z,80514.03
2023-05-02T10:01:15.720Z,80501.97
2023-05-02T10:02:57.113Z,80503.94
2023-05-02T10:04:38.548Z,80512.97
2023-05-02T10:06:19.942Z,80509.88
2023-05-02T10:08:01.290Z,80508.84
2023-05-02T10:09:42.578Z,80505.56
2023-05-02T10:11:23.923Z,80504.28
2023-05-02T10:13:05.227Z,80506.97
2023-05-02T10:14:46.551Z,80507.59
2023-05-02T10:16:27.941Z,80522.72
2023-05-02T10:18:09.337Z,80515.47
2023-05-02T10:19:50.752Z,80512.16
2023-05-02T10:21:32.065Z,80510.19
2023-05-02T10:23:13.364Z,80516.75
2023-05-02T10:24:54.663Z,80516.78
2023-05-02T10:26:35.961Z,80515.50
2023-05-02T10:28:17.261Z,80523.28
2023-05-02T10:29:58.620Z,80519.28
2023-05-02T10:31:39.996Z,80527.22
2023-05-02T10:33:21.392Z,80521.84
2023-05-02T10:35:02.997Z,80530.78
2023-05-02T10:36:44.483Z,80518.94
2023-05-02T10:38:25.821Z,80522.50
2023-05-02T10:40:07.122Z,80531.28
2023-05-02T10:41:48.446Z,80526.69
2023-05-02T10:43:29.723Z,80529.81
2023-05-02T10:45:11.054Z,80533.06
2023-05-02T10:46:52.376Z,80543.94
2023-05-02T10:48:35.212Z,80543.91
2023-05-02T10:50:16.533Z,80541.84
2023-05-02T10:51:57.818Z,80545.34
2023-05-02T10:53:39.119Z,80540.91
2023-05-02T10:55:20.432Z,80543.75
2023-05-02T10:57:01.773Z,80546.25
2023-05-02T10:58:43.089Z,80545.59
2023-05-02T11:00:24.467Z,80546.25
2023-05-02T11:02:07.182Z,80556.53
2023-05-02T11:03:48.738Z,80551.38
2023-05-02T11:05:30.031Z,80550.84
2023-05-02T11:07:11.313Z,80549.69
2023-05-02T11:08:52.629Z,80544.06
2023-05-02T11:10:33.964Z,80542.91
2023-05-02T11:12:15.224Z,80543.06
2023-05-02T11:13:56.529Z,80544.41
2023-05-02T11:15:37.965Z,80553.22
2023-05-02T11:17:19.845Z,80560.81
2023-05-02T11:19:01.596Z,80556.56
2023-05-02T11:20:42.948Z,80563.09
2023-05-02T11:22:24.328Z,80561.44
2023-05-02T11:24:05.747Z,80560.72
2023-05-02T11:25:47.185Z,80568.25
2023-05-02T11:27:28.507Z,80560.31
2023-05-02T11:29:09.791Z,80557.50
2023-05-02T11:30:51.099Z,80554.31
2023-05-02T11:32:32.795Z,80548.41
2023-05-02T11:34:14.577Z,80553.00
2023-05-02T11:35:56.063Z,80545.78
2023-05-02T11:37:37.610Z,80551.06
2023-05-02T11:39:19.015Z,80543.69
2023-05-02T11:41:00.381Z,80547.69
2023-05-02T11:42:41.675Z,80541.78
2023-05-02T11:44:23.034Z,80550.31
2023-05-02T11:46:04.379Z,80544.44
2023-05-02T11:47:45.749Z,80537.19
2023-05-02T11:49:27.375Z,80544.41
2023-05-02T11:51:08.928Z,80541.81
2023-05-02T11:52:50.190Z,80543.78
2023-05-02T11:54:31.757Z,80542.38
2023-05-02T11:56:13.236Z,80543.16
2023-05-02T11:57:54.513Z,80551.66
2023-05-02T11:59:35.888Z,80558.34
2023-05-02T12:01:17.658Z,80552.94
2023-05-02T12:02:59.229Z,80552.16
2023-05-02T12:04:40.606Z,80556.94
2023-05-02T12:06:22.013Z,80554.47
2023-05-02T12:08:03.438Z,80553.16
2023-05-02T12:09:45.391Z,80550.63
2023-05-02T12:11:26.934Z,80563.69
2023-05-02T12:13:09.972Z,80566.41
2023-05-02T12:14:51.426Z,80554.09
2023-05-02T12:16:33.073Z,80554.97
2023-05-02T12:18:14.739Z,80551.03
2023-05-02T12:19:56.152Z,80558.28
2023-05-02T12:21:37.447Z,80551.03
2023-05-02T12:23:18.763Z,80562.16
2023-05-02T12:25:00.945Z,80563.94
2023-05-02T12:26:42.810Z,80569.06
2023-05-02T12:28:24.180Z,80572.25
2023-05-02T12:30:05.894Z,80565.69
2023-05-02T12:31:47.531Z,80566.16
2023-05-02T12:33:29.063Z,80562.22
2023-05-02T12:35:10.670Z,80557.56
2023-05-02T12:36:52.236Z,80557.53
2023-05-02T12:38:33.690Z,80560.13
2023-05-02T12:40:15.154Z,80558.94
2023-05-02T12:41:56.596Z,80562.78
2023-05-02T12:43:38.223Z,80564.13
2023-05-02T12:45:19.537Z,80560.13
2023-05-02T12:47:00.982Z,80572.94
2023-05-02T12:48:43.286Z,80577.00
2023-05-02T12:50:25.468Z,80577.41
2023-05-02T12:52:07.398Z,80574.91
2023-05-02T12:53:49.127Z,80576.09
2023-05-02T12:55:30.581Z,80579.66
2023-05-02T12:57:11.918Z,80582.03
2023-05-02T12:58:53.340Z,80573.25
2023-05-02T13:00:34.828Z,80573.75
2023-05-02T13:02:16.359Z,80574.59
2023-05-02T13:03:57.774Z,80578.25
2023-05-02T13:05:39.132Z,80574.03
2023-05-02T13:07:20.437Z,80576.22
2023-05-02T13:09:01.771Z,80573.00
2023-05-02T13:10:43.064Z,80579.59
2023-05-02T13:12:24.407Z,80576.91
2023-05-02T13:14:05.796Z,80580.16
2023-05-02T13:15:47.199Z,80576.34
2023-05-02T13:17:28.651Z,80576.88
2023-05-02T13:19:10.229Z,80581.34
2023-05-02T13:20:51.783Z,80581.31
2023-05-02T13:22:33.590Z,80578.47
2023-05-02T13:24:15.164Z,80581.44
2023-05-02T13:25:56.475Z,80569.94
2023-05-02T13:27:37.987Z,80582.81
2023-05-02T13:29:19.489Z,80565.94
2023-05-02T13:31:00.965Z,80556.16
2023-05-02T13:32:42.345Z,80560.16
2023-05-02T13:34:23.705Z,80561.31
2023-05-02T13:36:05.307Z,80566.81
2023-05-02T13:37:46.753Z,80570.22
2023-05-02T13:39:28.028Z,80578.19
2023-05-02T13:41:09.435Z,80565.94
2023-05-02T13:42:50.958Z,80565.28
2023-05-02T13:44:32.461Z,80575.56
2023-05-02T13:46:13.966Z,80571.56
2023-05-02T13:47:55.693Z,80577.16
2023-05-02T13:49:37.094Z,80576.13
2023-05-02T13:51:18.436Z,80568.44
2023-05-02T13:52:59.780Z,80571.00
2023-05-02T13:54:41.268Z,80573.94
2023-05-02T13:56:22.899Z,80578.34
2023-05-02T13:58:04.235Z,80577.72
2023-05-02T13:59:45.841Z,80577.31
2023-05-02T14:01:27.621Z,80579.22
2023-05-02T14:03:09.291Z,80576.81
2023-05-02T14:04:50.724Z,80562.63
2023-05-02T14:06:32.358Z,80565.88
2023-05-02T14:08:13.883Z,80565.25
2023-05-02T14:09:55.196Z,80573.78
2023-05-02T14:11:36.467Z,80567.81
2023-05-02T14:13:18.414Z,80569.97
2023-05-02T14:14:59.982Z,80569.88
2023-05-02T14:16:41.361Z,80581.44
2023-05-02T14:18:22.664Z,80580.44
2023-05-02T14:20:04.375Z,80596.75
2023-05-02T14:21:46.136Z,80583.91
2023-05-02T14:23:27.905Z,80585.19
2023-05-02T14:25:09.551Z,80577.63
2023-05-02T14:26:51.032Z,80582.84
2023-05-02T14:28:32.630Z,80583.09
2023-05-02T14:30:14.165Z,80581.06
2023-05-02T14:31:55.773Z,80582.16
2023-05-02T14:33:37.759Z,80573.56
2023-05-02T14:35:19.337Z,80569.78
2023-05-02T14:37:00.649Z,80573.31
2023-05-02T14:38:41.953Z,80576.53
2023-05-02T14:40:23.269Z,80575.59
2023-05-02T14:42:04.743Z,80564.84
2023-05-02T14:43:46.093Z,80571.66
2023-05-02T14:45:27.373Z,80577.56
2023-05-02T14:47:08.711Z,80577.53
2023-05-02T14:48:50.280Z,80575.56
2023-05-02T14:50:31.976Z,80578.72
2023-05-02T14:52:13.470Z,80586.88
2023-05-02T14:53:55.221Z,80583.28
2023-05-02T14:55:36.812Z,80586.00
2023-05-02T14:57:18.374Z,80579.25
2023-05-02T14:58:59.883Z,80579.38
2023-05-02T15:00:41.303Z,80584.50
2023-05-02T15:02:22.821Z,80579.06
2023-05-02T15:04:07.196Z,80582.59
2023-05-02T15:05:50.219Z,80582.97
2023-05-02T15:07:31.720Z,80574.97
2023-05-02T15:09:13.010Z,80584.75
2023-05-02T15:10:54.355Z,80577.75
2023-05-02T15:12:35.673Z,80580.97
2023-05-02T15:14:17.278Z,80582.44
2023-05-02T15:15:58.911Z,80581.66
2023-05-02T15:17:40.323Z,80585.00
2023-05-02T15:19:21.623Z,80581.72
2023-05-02T15:21:03.003Z,80587.97
2023-05-02T15:22:44.315Z,80582.84
2023-05-02T15:24:26.232Z,80586.47
2023-05-02T15:26:07.687Z,80589.50
2023-05-02T15:27:49.028Z,80589.19
2023-05-02T15:29:30.345Z,80599.41
2023-05-02T15:31:11.596Z,80596.91
2023-05-02T15:32:53.022Z,80598.00
2023-05-02T15:34:34.364Z,80598.56
2023-05-02T15:36:15.630Z,80598.03
2023-05-02T15:37:56.924Z,80598.59
2023-05-02T15:39:38.220Z,80604.59
2023-05-02T15:41:19.505Z,80605.31
2023-05-02T15:43:01.108Z,80604.44
2023-05-02T15:44:42.725Z,80593.72
2023-05-02T15:46:24.068Z,80590.53
2023-05-02T15:48:05.869Z,80599.69
2023-05-02T15:49:47.427Z,80607.00
2023-05-02T15:51:28.692Z,80600.88
2023-05-02T15:53:10.271Z,80610.53
2023-05-02T15:54:51.903Z,80604.00
2023-05-02T15:56:33.409Z,80607.72
2023-05-02T15:58:14.714Z,80604.44
2023-05-02T15:59:56.007Z,80601.50
2023-05-02T16:01:37.367Z,80605.03
2023-05-02T16:03:18.740Z,80602.47
2023-05-02T16:05:00.173Z,80603.75
2023-05-02T16:06:41.902Z,80606.50
2023-05-02T16:08:23.440Z,80600.03
2023-05-02T16:10:04.952Z,80599.84
2023-05-02T16:11:46.583Z,80602.25
2023-05-02T16:13:28.213Z,80599.56
2023-05-02T16:15:09.672Z,80603.03
2023-05-02T16:16:50.978Z,80604.56
2023-05-02T16:18:32.271Z,80607.75
2023-05-02T16:20:13.544Z,80609.50
2023-05-02T16:21:54.848Z,80610.59
2023-05-02T16:23:36.410Z,80615.28
2023-05-02T16:25:18.119Z,80614.50
2023-05-02T16:26:59.513Z,80619.38
2023-05-02T16:28:41.024Z,80625.38
2023-05-02T16:30:22.590Z,80624.16
2023-05-02T16:32:03.894Z,80621.75
2023-05-02T16:33:45.422Z,80625.56
2023-05-02T16:35:26.914Z,80620.78
2023-05-02T16:37:08.330Z,80625.44
2023-05-02T16:38:49.674Z,80631.41
2023-05-02T16:40:31.106Z,80636.72
2023-05-02T16:42:12.505Z,80638.97
2023-05-02T16:43:53.780Z,80635.69
2023-05-02T16:45:35.296Z,80630.13
2023-05-02T16:47:17.003Z,80634.84
2023-05-02T16:48:58.351Z,80635.13
2023-05-02T16:50:39.678Z,80648.72
2023-05-02T16:52:21.216Z,80654.63
2023-05-02T16:54:02.526Z,80652.94
2023-05-02T16:55:43.863Z,80648.28
2023-05-02T16:57:25.173Z,80650.34
2023-05-02T16:59:07.092Z,80660.34
2023-05-02T17:00:48.875Z,80652.94
2023-05-02T17:02:30.560Z,80656.59
2023-05-02T17:04:11.907Z,80655.69
2023-05-02T17:05:53.446Z,80664.63
2023-05-02T17:07:35.212Z,80663.66
2023-05-02T17:09:16.744Z,80653.94
2023-05-02T17:10:58.056Z,80662.50
2023-05-02T17:12:40.114Z,80664.91
2023-05-02T17:14:21.845Z,80668.16
2023-05-02T17:16:03.438Z,80665.09
2023-05-02T17:17:44.840Z,80664.91
2023-05-02T17:19:26.654Z,80667.59
2023-05-02T17:21:08.254Z,80673.00
2023-05-02T17:22:49.546Z,80663.00
2023-05-02T17:24:30.854Z,80666.31
2023-05-02T17:26:12.150Z,80666.88
2023-05-02T17:27:53.441Z,80658.91
2023-05-02T17:29:34.771Z,80664.25
2023-05-02T17:31:19.495Z,80662.69
2023-05-02T17:33:01.179Z,80668.31
2023-05-02T17:34:42.808Z,80672.53
2023-05-02T17:36:24.081Z,80674.13
2023-05-02T17:38:05.588Z,80672.03
2023-05-02T17:39:47.168Z,80676.91
2023-05-02T17:41:28.479Z,80670.50
2023-05-02T17:43:09.805Z,80677.91
2023-05-02T17:44:51.307Z,80680.31
2023-05-02T17:46:32.848Z,80675.03
2023-05-02T17:48:14.295Z,80677.25
2023-05-02T17:49:55.685Z,80678.13
2023-05-02T17:51:36.962Z,80678.72
2023-05-02T17:53:18.256Z,80680.09
2023-05-02T17:55:00.278Z,80684.13
2023-05-02T17:56:41.793Z,80681.53
2023-05-02T17:58:23.364Z,80685.66
2023-05-02T18:00:05.342Z,80685.97
2023-05-02T18:01:46.988Z,80684.50
2023-05-02T18:03:28.597Z,80683.75
2023-05-02T18:05:10.251Z,80692.97
2023-05-02T18:06:51.724Z,80690.59
2023-05-02T18:08:33.095Z,80693.44
2023-05-02T18:10:14.550Z,80693.19
2023-05-02T18:11:55.841Z,80692.09
2023-05-02T18:13:37.852Z,80688.44
2023-05-02T18:15:19.346Z,80693.84
2023-05-02T18:17:00.644Z,80685.31
2023-05-02T18:18:41.944Z,80693.19
2023-05-02T18:20:23.346Z,80689.38
2023-05-02T18:22:05.443Z,80693.25
2023-05-02T18:23:47.185Z,80695.59
2023-05-02T18:25:28.904Z,80685.63
2023-05-02T18:27:10.420Z,80692.75
2023-05-02T18:28:51.952Z,80701.22
2023-05-02T18:30:33.437Z,80695.53
2023-05-02T18:32:14.785Z,80699.94
2023-05-02T18:33:56.117Z,80699.16
2023-05-02T18:35:37.642Z,80696.31
2023-05-02T18:37:18.965Z,80706.69
2023-05-02T18:39:00.302Z,80700.97
2023-05-02T18:40:41.580Z,80707.75
2023-05-02T18:42:22.856Z,80715.16
2023-05-02T18:44:04.178Z,80714.88
2023-05-02T18:45:45.439Z,80713.09
2023-05-02T18:47:27.398Z,80717.75
2023-05-02T18:49:09.049Z,80716.06
2023-05-02T18:50:50.332Z,80716.44
2023-05-02T18:52:31.871Z,80716.38
2023-05-02T18:54:13.748Z,80713.81
2023-05-02T18:55:55.050Z,80716.06
2023-05-02T18:57:36.353Z,80716.22
2023-05-02T18:59:17.655Z,80715.94
2023-05-02T19:00:59.790Z,80723.44
2023-05-02T19:02:41.557Z,80722.69
2023-05-02T19:04:23.220Z,80722.25
2023-05-02T19:06:04.820Z,80717.91
2023-05-02T19:07:46.363Z,80724.16
2023-05-02T19:09:27.699Z,80731.66
2023-05-02T19:11:09.157Z,80726.59
2023-05-02T19:12:50.606Z,80725.25
2023-05-02T19:14:31.916Z,80726.81
2023-05-02T19:16:14.049Z,80737.06
2023-05-02T19:17:55.728Z,80735.13
2023-05-02T19:19:37.429Z,80741.00
2023-05-02T19:21:18.893Z,80734.69
2023-05-02T19:23:18.482Z,80733.41
2023-05-02T19:25:01.981Z,80738.19
2023-05-02T19:26:43.911Z,80739.41
2023-05-02T19:28:25.559Z,80738.81
2023-05-02T19:30:07.025Z,80741.22
2023-05-02T19:31:48.345Z,80742.59
2023-05-02T19:33:29.912Z,80739.66
2023-05-02T19:35:11.401Z,80749.00
2023-05-02T19:36:52.730Z,80742.34
2023-05-02T19:38:34.032Z,80740.66
2023-05-02T19:40:15.583Z,80742.50
2023-05-02T19:41:57.409Z,80754.19
2023-05-02T19:43:38.883Z,80753.69
2023-05-02T19:45:20.186Z,80750.03
2023-05-02T19:47:01.486Z,80754.88
2023-05-02T19:48:42.777Z,80744.25
2023-05-02T19:50:24.465Z,80754.13
2023-05-02T19:52:06.081Z,80753.81